sensor_id;sensor_type;location;lat;lon;timestamp;temperature;humidity
10316;DHT22;5203;48.976;8.306;2022-12-01T00:00:29;6.40;90.50
10316;DHT22;5203;48.976;8.306;2022-12-01T00:02:55;6.30;91.80
10316;DHT22;5203;48.976;8.306;2022-12-01T00:05:20;6.40;89.30
10316;DHT22;5203;48.976;8.306;2022-12-01T00:07:47;6.40;88.50
10316;DHT22;5203;48.976;8.306;2022-12-01T00:10:14;6.30;90.30
10316;DHT22;5203;48.976;8.306;2022-12-01T00:12:56;6.30;89.70
10316;DHT22;5203;48.976;8.306;2022-12-01T00:15:25;6.40;90.80
10316;DHT22;5203;48.976;8.306;2022-12-01T00:17:51;6.40;91.30
10316;DHT22;5203;48.976;8.306;2022-12-01T00:20:17;6.30;90.40
10316;DHT22;5203;48.976;8.306;2022-12-01T00:22:46;6.30;89.00
10316;DHT22;5203;48.976;8.306;2022-12-01T00:25:14;6.20;88.90
10316;DHT22;5203;48.976;8.306;2022-12-01T00:27:40;6.20;91.80
10316;DHT22;5203;48.976;8.306;2022-12-01T00:30:09;6.40;90.00
10316;DHT22;5203;48.976;8.306;2022-12-01T00:32:35;6.30;90.40
10316;DHT22;5203;48.976;8.306;2022-12-01T00:35:03;6.40;88.10
10316;DHT22;5203;48.976;8.306;2022-12-01T00:37:29;6.20;87.10
10316;DHT22;5203;48.976;8.306;2022-12-01T00:39:56;6.10;88.70
10316;DHT22;5203;48.976;8.306;2022-12-01T00:42:22;6.20;88.70
10316;DHT22;5203;48.976;8.306;2022-12-01T00:44:48;6.10;88.50
10316;DHT22;5203;48.976;8.306;2022-12-01T00:47:14;6.00;87.90
10316;DHT22;5203;48.976;8.306;2022-12-01T00:49:40;6.10;88.20
10316;DHT22;5203;48.976;8.306;2022-12-01T00:52:05;6.10;87.60
10316;DHT22;5203;48.976;8.306;2022-12-01T00:54:31;6.10;88.20
10316;DHT22;5203;48.976;8.306;2022-12-01T00:56:58;6.10;89.10
10316;DHT22;5203;48.976;8.306;2022-12-01T00:59:24;6.10;88.80
10316;DHT22;5203;48.976;8.306;2022-12-01T01:01:50;6.10;87.90
10316;DHT22;5203;48.976;8.306;2022-12-01T01:04:17;6.10;87.90
10316;DHT22;5203;48.976;8.306;2022-12-01T01:06:42;6.10;87.60
10316;DHT22;5203;48.976;8.306;2022-12-01T01:09:09;6.10;86.70
10316;DHT22;5203;48.976;8.306;2022-12-01T01:11:35;6.00;87.40
10316;DHT22;5203;48.976;8.306;2022-12-01T01:14:01;6.10;87.70
10316;DHT22;5203;48.976;8.306;2022-12-01T01:16:27;6.10;86.90
10316;DHT22;5203;48.976;8.306;2022-12-01T01:18:53;6.10;86.90
10316;DHT22;5203;48.976;8.306;2022-12-01T01:21:20;6.00;87.50
10316;DHT22;5203;48.976;8.306;2022-12-01T01:23:47;6.00;87.00
10316;DHT22;5203;48.976;8.306;2022-12-01T01:26:25;6.00;86.90
10316;DHT22;5203;48.976;8.306;2022-12-01T01:28:52;6.00;87.60
10316;DHT22;5203;48.976;8.306;2022-12-01T01:31:20;5.80;88.70
10316;DHT22;5203;48.976;8.306;2022-12-01T01:33:46;5.80;89.00
10316;DHT22;5203;48.976;8.306;2022-12-01T01:36:13;5.60;89.00
10316;DHT22;5203;48.976;8.306;2022-12-01T01:38:39;5.70;91.00
10316;DHT22;5203;48.976;8.306;2022-12-01T01:41:06;5.80;89.40
10316;DHT22;5203;48.976;8.306;2022-12-01T01:43:45;5.80;89.10
10316;DHT22;5203;48.976;8.306;2022-12-01T01:46:19;5.70;90.20
10316;DHT22;5203;48.976;8.306;2022-12-01T01:49:03;5.70;89.20
10316;DHT22;5203;48.976;8.306;2022-12-01T01:54:21;5.70;90.30
10316;DHT22;5203;48.976;8.306;2022-12-01T01:56:46;5.70;89.90
10316;DHT22;5203;48.976;8.306;2022-12-01T01:59:17;5.70;88.90
10316;DHT22;5203;48.976;8.306;2022-12-01T02:01:48;5.70;89.90
10316;DHT22;5203;48.976;8.306;2022-12-01T02:04:15;5.70;89.80
10316;DHT22;5203;48.976;8.306;2022-12-01T02:06:40;5.70;90.10
10316;DHT22;5203;48.976;8.306;2022-12-01T02:09:10;5.70;90.50
10316;DHT22;5203;48.976;8.306;2022-12-01T02:19:53;5.70;91.30
10316;DHT22;5203;48.976;8.306;2022-12-01T02:25:17;5.60;88.80
10316;DHT22;5203;48.976;8.306;2022-12-01T02:28:04;5.50;90.00
10316;DHT22;5203;48.976;8.306;2022-12-01T02:33:10;5.60;89.70
10316;DHT22;5203;48.976;8.306;2022-12-01T02:35:47;5.70;89.80
10316;DHT22;5203;48.976;8.306;2022-12-01T02:40:54;5.60;88.20
10316;DHT22;5203;48.976;8.306;2022-12-01T02:45:58;5.60;88.70
10316;DHT22;5203;48.976;8.306;2022-12-01T02:50:53;5.60;87.30
10316;DHT22;5203;48.976;8.306;2022-12-01T02:53:19;5.50;86.10
10316;DHT22;5203;48.976;8.306;2022-12-01T02:55:50;5.50;86.10
10316;DHT22;5203;48.976;8.306;2022-12-01T02:58:16;5.40;86.10
10316;DHT22;5203;48.976;8.306;2022-12-01T03:04:04;5.50;87.40
10316;DHT22;5203;48.976;8.306;2022-12-01T03:15:30;5.40;85.40
10316;DHT22;5203;48.976;8.306;2022-12-01T03:23:16;5.40;87.20
10316;DHT22;5203;48.976;8.306;2022-12-01T03:25:46;5.40;88.00
10316;DHT22;5203;48.976;8.306;2022-12-01T03:28:15;5.40;87.20
10316;DHT22;5203;48.976;8.306;2022-12-01T03:30:42;5.40;87.80
10316;DHT22;5203;48.976;8.306;2022-12-01T03:33:17;5.40;87.30
10316;DHT22;5203;48.976;8.306;2022-12-01T03:35:53;5.40;87.10
10316;DHT22;5203;48.976;8.306;2022-12-01T03:38:24;5.40;87.80
10316;DHT22;5203;48.976;8.306;2022-12-01T03:40:54;5.30;86.90
10316;DHT22;5203;48.976;8.306;2022-12-01T03:43:25;5.30;87.00
10316;DHT22;5203;48.976;8.306;2022-12-01T03:46:14;5.20;87.30
10316;DHT22;5203;48.976;8.306;2022-12-01T03:48:43;5.30;90.10
10316;DHT22;5203;48.976;8.306;2022-12-01T03:54:15;5.40;86.80
10316;DHT22;5203;48.976;8.306;2022-12-01T03:56:47;5.30;85.90
10316;DHT22;5203;48.976;8.306;2022-12-01T03:59:15;5.10;87.00
10316;DHT22;5203;48.976;8.306;2022-12-01T04:01:44;5.20;87.60
10316;DHT22;5203;48.976;8.306;2022-12-01T04:04:11;5.20;88.70
10316;DHT22;5203;48.976;8.306;2022-12-01T04:06:39;5.20;86.30
10316;DHT22;5203;48.976;8.306;2022-12-01T04:09:06;5.30;86.60
10316;DHT22;5203;48.976;8.306;2022-12-01T04:11:31;5.30;86.70
10316;DHT22;5203;48.976;8.306;2022-12-01T04:14:15;5.30;86.60
10316;DHT22;5203;48.976;8.306;2022-12-01T04:16:41;5.20;84.10
10316;DHT22;5203;48.976;8.306;2022-12-01T04:19:07;5.20;84.80
10316;DHT22;5203;48.976;8.306;2022-12-01T04:21:32;5.20;86.10
10316;DHT22;5203;48.976;8.306;2022-12-01T04:23:58;5.20;85.20
10316;DHT22;5203;48.976;8.306;2022-12-01T04:26:32;5.20;84.70
10316;DHT22;5203;48.976;8.306;2022-12-01T04:28:59;5.20;87.70
10316;DHT22;5203;48.976;8.306;2022-12-01T04:31:25;5.30;87.10
10316;DHT22;5203;48.976;8.306;2022-12-01T04:33:51;5.20;84.60
10316;DHT22;5203;48.976;8.306;2022-12-01T04:36:18;5.20;87.00
10316;DHT22;5203;48.976;8.306;2022-12-01T04:38:43;5.20;86.40
10316;DHT22;5203;48.976;8.306;2022-12-01T04:41:13;5.10;87.20
10316;DHT22;5203;48.976;8.306;2022-12-01T04:43:39;5.10;85.30
10316;DHT22;5203;48.976;8.306;2022-12-01T04:46:06;5.00;85.90
10316;DHT22;5203;48.976;8.306;2022-12-01T04:48:33;5.00;87.40
10316;DHT22;5203;48.976;8.306;2022-12-01T04:51:00;5.00;87.70
10316;DHT22;5203;48.976;8.306;2022-12-01T04:53:26;5.00;87.50
10316;DHT22;5203;48.976;8.306;2022-12-01T04:55:51;5.00;88.70
10316;DHT22;5203;48.976;8.306;2022-12-01T04:58:17;5.00;88.20
10316;DHT22;5203;48.976;8.306;2022-12-01T05:00:43;5.00;88.60
10316;DHT22;5203;48.976;8.306;2022-12-01T05:03:08;5.00;90.50
10316;DHT22;5203;48.976;8.306;2022-12-01T05:05:34;5.00;89.80
10316;DHT22;5203;48.976;8.306;2022-12-01T05:08:00;5.00;87.70
10316;DHT22;5203;48.976;8.306;2022-12-01T05:10:26;5.00;88.00
10316;DHT22;5203;48.976;8.306;2022-12-01T05:12:52;5.00;90.10
10316;DHT22;5203;48.976;8.306;2022-12-01T05:15:19;5.00;89.80
10316;DHT22;5203;48.976;8.306;2022-12-01T05:17:45;5.00;89.00
10316;DHT22;5203;48.976;8.306;2022-12-01T05:20:20;5.00;88.90
10316;DHT22;5203;48.976;8.306;2022-12-01T05:23:15;5.00;89.40
10316;DHT22;5203;48.976;8.306;2022-12-01T05:25:41;5.10;87.40
10316;DHT22;5203;48.976;8.306;2022-12-01T05:28:06;5.10;89.00
10316;DHT22;5203;48.976;8.306;2022-12-01T05:30:32;5.10;89.40
10316;DHT22;5203;48.976;8.306;2022-12-01T05:32:58;5.20;89.30
10316;DHT22;5203;48.976;8.306;2022-12-01T05:35:23;5.20;89.20
10316;DHT22;5203;48.976;8.306;2022-12-01T05:37:49;5.30;89.80
10316;DHT22;5203;48.976;8.306;2022-12-01T05:40:15;5.30;90.40
10316;DHT22;5203;48.976;8.306;2022-12-01T05:42:40;5.20;90.50
10316;DHT22;5203;48.976;8.306;2022-12-01T05:45:06;5.30;89.30
10316;DHT22;5203;48.976;8.306;2022-12-01T05:47:32;5.20;88.00
10316;DHT22;5203;48.976;8.306;2022-12-01T05:49:58;5.20;90.50
10316;DHT22;5203;48.976;8.306;2022-12-01T05:52:23;5.20;89.60
10316;DHT22;5203;48.976;8.306;2022-12-01T05:54:49;5.20;88.20
10316;DHT22;5203;48.976;8.306;2022-12-01T05:57:15;5.10;88.50
10316;DHT22;5203;48.976;8.306;2022-12-01T05:59:40;5.20;89.70
10316;DHT22;5203;48.976;8.306;2022-12-01T06:02:06;5.20;90.00
10316;DHT22;5203;48.976;8.306;2022-12-01T06:04:31;5.10;89.20
10316;DHT22;5203;48.976;8.306;2022-12-01T06:06:57;5.20;90.50
10316;DHT22;5203;48.976;8.306;2022-12-01T06:09:23;5.20;89.10
10316;DHT22;5203;48.976;8.306;2022-12-01T06:11:49;5.30;88.00
10316;DHT22;5203;48.976;8.306;2022-12-01T06:14:15;5.20;87.40
10316;DHT22;5203;48.976;8.306;2022-12-01T06:16:41;5.30;90.10
10316;DHT22;5203;48.976;8.306;2022-12-01T06:19:06;5.30;88.20
10316;DHT22;5203;48.976;8.306;2022-12-01T06:21:32;5.30;87.90
10316;DHT22;5203;48.976;8.306;2022-12-01T06:23:57;5.30;87.40
10316;DHT22;5203;48.976;8.306;2022-12-01T06:26:23;5.30;89.60
10316;DHT22;5203;48.976;8.306;2022-12-01T06:28:49;5.30;88.70
10316;DHT22;5203;48.976;8.306;2022-12-01T06:31:17;5.30;88.70
10316;DHT22;5203;48.976;8.306;2022-12-01T06:33:43;5.40;88.30
10316;DHT22;5203;48.976;8.306;2022-12-01T06:36:09;5.40;87.50
10316;DHT22;5203;48.976;8.306;2022-12-01T06:38:35;5.40;88.30
10316;DHT22;5203;48.976;8.306;2022-12-01T06:41:02;5.40;87.80
10316;DHT22;5203;48.976;8.306;2022-12-01T06:43:28;5.40;88.60
10316;DHT22;5203;48.976;8.306;2022-12-01T06:45:54;5.40;88.80
10316;DHT22;5203;48.976;8.306;2022-12-01T06:48:20;5.50;88.40
10316;DHT22;5203;48.976;8.306;2022-12-01T06:50:45;5.50;88.00
10316;DHT22;5203;48.976;8.306;2022-12-01T06:53:11;5.50;88.70
10316;DHT22;5203;48.976;8.306;2022-12-01T06:55:37;5.50;86.50
10316;DHT22;5203;48.976;8.306;2022-12-01T06:58:04;5.40;87.00
10316;DHT22;5203;48.976;8.306;2022-12-01T07:00:30;5.50;88.90
10316;DHT22;5203;48.976;8.306;2022-12-01T07:02:55;5.50;87.80
10316;DHT22;5203;48.976;8.306;2022-12-01T07:05:21;5.50;88.70
10316;DHT22;5203;48.976;8.306;2022-12-01T07:07:47;5.50;87.80
10316;DHT22;5203;48.976;8.306;2022-12-01T07:10:13;5.50;87.30
10316;DHT22;5203;48.976;8.306;2022-12-01T07:12:39;5.50;87.70
10316;DHT22;5203;48.976;8.306;2022-12-01T07:15:06;5.50;88.90
10316;DHT22;5203;48.976;8.306;2022-12-01T07:17:33;5.60;88.60
10316;DHT22;5203;48.976;8.306;2022-12-01T07:19:59;5.60;87.20
10316;DHT22;5203;48.976;8.306;2022-12-01T07:22:25;5.50;87.30
10316;DHT22;5203;48.976;8.306;2022-12-01T07:24:50;5.50;88.10
10316;DHT22;5203;48.976;8.306;2022-12-01T07:27:16;5.60;87.50
10316;DHT22;5203;48.976;8.306;2022-12-01T07:29:42;5.50;86.60
10316;DHT22;5203;48.976;8.306;2022-12-01T07:32:07;5.50;87.00
10316;DHT22;5203;48.976;8.306;2022-12-01T07:34:33;5.50;87.20
10316;DHT22;5203;48.976;8.306;2022-12-01T07:36:59;5.50;88.40
10316;DHT22;5203;48.976;8.306;2022-12-01T07:39:24;5.50;87.60
10316;DHT22;5203;48.976;8.306;2022-12-01T07:41:50;5.50;88.10
10316;DHT22;5203;48.976;8.306;2022-12-01T07:44:16;5.50;87.40
10316;DHT22;5203;48.976;8.306;2022-12-01T07:46:41;5.50;87.80
10316;DHT22;5203;48.976;8.306;2022-12-01T07:49:07;5.50;88.30
10316;DHT22;5203;48.976;8.306;2022-12-01T07:51:36;5.60;87.50
10316;DHT22;5203;48.976;8.306;2022-12-01T07:54:04;5.60;87.40
10316;DHT22;5203;48.976;8.306;2022-12-01T07:56:30;5.60;86.10
10316;DHT22;5203;48.976;8.306;2022-12-01T07:58:56;5.50;86.70
10316;DHT22;5203;48.976;8.306;2022-12-01T08:01:22;5.50;87.70
10316;DHT22;5203;48.976;8.306;2022-12-01T08:03:54;5.60;88.70
10316;DHT22;5203;48.976;8.306;2022-12-01T08:06:21;5.60;87.90
10316;DHT22;5203;48.976;8.306;2022-12-01T08:08:47;5.60;86.50
10316;DHT22;5203;48.976;8.306;2022-12-01T08:11:39;5.60;87.00
10316;DHT22;5203;48.976;8.306;2022-12-01T08:14:05;5.60;86.50
10316;DHT22;5203;48.976;8.306;2022-12-01T08:16:30;5.70;88.10
10316;DHT22;5203;48.976;8.306;2022-12-01T08:18:56;5.80;86.00
10316;DHT22;5203;48.976;8.306;2022-12-01T08:21:22;5.80;85.10
10316;DHT22;5203;48.976;8.306;2022-12-01T08:23:52;5.70;86.80
10316;DHT22;5203;48.976;8.306;2022-12-01T08:26:20;5.60;86.10
10316;DHT22;5203;48.976;8.306;2022-12-01T08:28:46;5.70;86.60
10316;DHT22;5203;48.976;8.306;2022-12-01T08:31:16;5.70;86.60
10316;DHT22;5203;48.976;8.306;2022-12-01T08:33:42;5.70;86.20
10316;DHT22;5203;48.976;8.306;2022-12-01T08:36:08;5.80;87.50
10316;DHT22;5203;48.976;8.306;2022-12-01T08:38:34;5.90;85.50
10316;DHT22;5203;48.976;8.306;2022-12-01T08:41:05;5.80;85.50
10316;DHT22;5203;48.976;8.306;2022-12-01T08:43:31;5.80;86.70
10316;DHT22;5203;48.976;8.306;2022-12-01T08:45:58;5.70;86.80
10316;DHT22;5203;48.976;8.306;2022-12-01T08:48:24;5.60;86.40
10316;DHT22;5203;48.976;8.306;2022-12-01T08:50:50;5.70;86.90
10316;DHT22;5203;48.976;8.306;2022-12-01T08:53:16;5.60;86.00
10316;DHT22;5203;48.976;8.306;2022-12-01T08:55:41;5.60;86.90
10316;DHT22;5203;48.976;8.306;2022-12-01T08:58:07;5.50;86.10
10316;DHT22;5203;48.976;8.306;2022-12-01T09:00:33;5.50;86.20
10316;DHT22;5203;48.976;8.306;2022-12-01T09:02:59;5.50;87.00
10316;DHT22;5203;48.976;8.306;2022-12-01T09:05:25;5.40;86.80
10316;DHT22;5203;48.976;8.306;2022-12-01T09:07:51;5.40;87.70
10316;DHT22;5203;48.976;8.306;2022-12-01T09:10:36;5.40;86.30
10316;DHT22;5203;48.976;8.306;2022-12-01T09:13:02;5.30;88.10
10316;DHT22;5203;48.976;8.306;2022-12-01T09:15:28;5.40;87.50
10316;DHT22;5203;48.976;8.306;2022-12-01T09:17:53;5.40;87.20
10316;DHT22;5203;48.976;8.306;2022-12-01T09:20:19;5.40;87.80
10316;DHT22;5203;48.976;8.306;2022-12-01T09:22:45;5.50;87.30
10316;DHT22;5203;48.976;8.306;2022-12-01T09:25:10;5.50;86.50
10316;DHT22;5203;48.976;8.306;2022-12-01T09:27:39;5.50;87.70
10316;DHT22;5203;48.976;8.306;2022-12-01T09:30:06;5.60;86.50
10316;DHT22;5203;48.976;8.306;2022-12-01T09:32:32;5.60;86.10
10316;DHT22;5203;48.976;8.306;2022-12-01T09:34:58;5.50;86.30
10316;DHT22;5203;48.976;8.306;2022-12-01T09:37:23;5.50;87.10
10316;DHT22;5203;48.976;8.306;2022-12-01T09:39:49;5.60;87.30
10316;DHT22;5203;48.976;8.306;2022-12-01T09:42:16;5.50;87.40
10316;DHT22;5203;48.976;8.306;2022-12-01T09:44:50;5.50;86.70
10316;DHT22;5203;48.976;8.306;2022-12-01T09:47:20;5.60;88.40
10316;DHT22;5203;48.976;8.306;2022-12-01T09:52:17;5.70;86.20
10316;DHT22;5203;48.976;8.306;2022-12-01T09:54:45;5.70;86.80
10316;DHT22;5203;48.976;8.306;2022-12-01T09:59:58;5.80;86.90
10316;DHT22;5203;48.976;8.306;2022-12-01T10:02:35;5.80;85.70
10316;DHT22;5203;48.976;8.306;2022-12-01T10:05:19;5.80;86.80
10316;DHT22;5203;48.976;8.306;2022-12-01T10:07:53;5.80;88.10
10316;DHT22;5203;48.976;8.306;2022-12-01T10:12:51;5.90;86.20
10316;DHT22;5203;48.976;8.306;2022-12-01T10:18:23;5.90;86.50
10316;DHT22;5203;48.976;8.306;2022-12-01T10:26:14;6.00;86.30
10316;DHT22;5203;48.976;8.306;2022-12-01T10:31:55;6.00;86.90
10316;DHT22;5203;48.976;8.306;2022-12-01T10:34:34;5.90;86.80
10316;DHT22;5203;48.976;8.306;2022-12-01T10:37:01;6.00;86.60
10316;DHT22;5203;48.976;8.306;2022-12-01T10:39:33;6.00;86.70
10316;DHT22;5203;48.976;8.306;2022-12-01T10:42:13;6.10;86.80
10316;DHT22;5203;48.976;8.306;2022-12-01T10:44:41;6.10;84.50
10316;DHT22;5203;48.976;8.306;2022-12-01T10:47:24;6.00;85.80
10316;DHT22;5203;48.976;8.306;2022-12-01T10:49:50;6.00;85.70
10316;DHT22;5203;48.976;8.306;2022-12-01T10:55:02;6.00;86.10
10316;DHT22;5203;48.976;8.306;2022-12-01T10:57:29;6.00;86.70
10316;DHT22;5203;48.976;8.306;2022-12-01T11:00:06;5.90;84.40
10316;DHT22;5203;48.976;8.306;2022-12-01T11:02:34;5.90;85.60
10316;DHT22;5203;48.976;8.306;2022-12-01T11:05:04;5.90;85.90
10316;DHT22;5203;48.976;8.306;2022-12-01T11:07:45;5.90;85.30
10316;DHT22;5203;48.976;8.306;2022-12-01T11:10:34;5.90;85.20
10316;DHT22;5203;48.976;8.306;2022-12-01T11:13:21;6.00;87.30
10316;DHT22;5203;48.976;8.306;2022-12-01T11:15:52;6.00;84.90
10316;DHT22;5203;48.976;8.306;2022-12-01T11:18:31;6.10;86.20
10316;DHT22;5203;48.976;8.306;2022-12-01T11:21:13;6.00;87.90
10316;DHT22;5203;48.976;8.306;2022-12-01T11:23:50;6.10;87.70
10316;DHT22;5203;48.976;8.306;2022-12-01T11:26:29;6.20;86.00
10316;DHT22;5203;48.976;8.306;2022-12-01T11:31:43;6.20;84.30
10316;DHT22;5203;48.976;8.306;2022-12-01T11:34:24;6.20;84.50
10316;DHT22;5203;48.976;8.306;2022-12-01T11:36:53;6.20;86.40
10316;DHT22;5203;48.976;8.306;2022-12-01T11:39:33;6.10;84.70
10316;DHT22;5203;48.976;8.306;2022-12-01T11:42:01;6.10;86.30
10316;DHT22;5203;48.976;8.306;2022-12-01T11:44:28;6.20;87.20
10316;DHT22;5203;48.976;8.306;2022-12-01T11:46:55;6.20;85.20
10316;DHT22;5203;48.976;8.306;2022-12-01T11:49:25;6.20;84.90
10316;DHT22;5203;48.976;8.306;2022-12-01T11:51:53;6.20;84.80
10316;DHT22;5203;48.976;8.306;2022-12-01T11:54:22;6.10;85.70
10316;DHT22;5203;48.976;8.306;2022-12-01T11:56:49;6.10;86.30
10316;DHT22;5203;48.976;8.306;2022-12-01T12:15:57;6.20;85.30
10316;DHT22;5203;48.976;8.306;2022-12-01T12:31:37;6.30;85.50
10316;DHT22;5203;48.976;8.306;2022-12-01T12:44:58;6.40;85.30
10316;DHT22;5203;48.976;8.306;2022-12-01T12:48:04;6.20;85.20
10316;DHT22;5203;48.976;8.306;2022-12-01T12:53:07;6.20;88.00
10316;DHT22;5203;48.976;8.306;2022-12-01T12:55:47;6.20;86.20
10316;DHT22;5203;48.976;8.306;2022-12-01T12:58:23;6.10;86.20
10316;DHT22;5203;48.976;8.306;2022-12-01T13:00:57;6.10;85.10
10316;DHT22;5203;48.976;8.306;2022-12-01T13:06:16;6.20;86.10
10316;DHT22;5203;48.976;8.306;2022-12-01T13:08:52;6.20;86.50
10316;DHT22;5203;48.976;8.306;2022-12-01T13:11:31;6.20;86.60
10316;DHT22;5203;48.976;8.306;2022-12-01T13:14:29;6.10;85.40
10316;DHT22;5203;48.976;8.306;2022-12-01T13:17:19;6.00;85.90
10316;DHT22;5203;48.976;8.306;2022-12-01T13:19:46;6.00;87.10
10316;DHT22;5203;48.976;8.306;2022-12-01T13:22:13;6.00;87.20
10316;DHT22;5203;48.976;8.306;2022-12-01T13:24:41;6.10;88.30
10316;DHT22;5203;48.976;8.306;2022-12-01T13:29:37;6.20;86.80
10316;DHT22;5203;48.976;8.306;2022-12-01T13:32:05;6.20;85.40
10316;DHT22;5203;48.976;8.306;2022-12-01T13:34:39;6.20;85.10
10316;DHT22;5203;48.976;8.306;2022-12-01T13:37:06;6.10;85.40
10316;DHT22;5203;48.976;8.306;2022-12-01T13:39:35;6.10;85.70
10316;DHT22;5203;48.976;8.306;2022-12-01T13:42:20;6.10;87.40
10316;DHT22;5203;48.976;8.306;2022-12-01T13:45:15;6.20;85.20
10316;DHT22;5203;48.976;8.306;2022-12-01T13:47:59;6.20;86.50
10316;DHT22;5203;48.976;8.306;2022-12-01T14:09:32;6.20;86.30
10316;DHT22;5203;48.976;8.306;2022-12-01T14:12:27;6.10;86.30
10316;DHT22;5203;48.976;8.306;2022-12-01T14:15:02;6.10;86.60
10316;DHT22;5203;48.976;8.306;2022-12-01T14:19:55;6.10;87.50
10316;DHT22;5203;48.976;8.306;2022-12-01T14:22:32;6.30;88.30
10316;DHT22;5203;48.976;8.306;2022-12-01T14:24:59;6.30;87.00
10316;DHT22;5203;48.976;8.306;2022-12-01T14:27:38;6.30;86.50
10316;DHT22;5203;48.976;8.306;2022-12-01T14:41:31;6.40;86.60
10316;DHT22;5203;48.976;8.306;2022-12-01T14:44:02;6.40;86.70
10316;DHT22;5203;48.976;8.306;2022-12-01T14:46:43;6.40;87.30
10316;DHT22;5203;48.976;8.306;2022-12-01T14:49:20;6.40;86.20
10316;DHT22;5203;48.976;8.306;2022-12-01T14:51:51;6.50;87.20
10316;DHT22;5203;48.976;8.306;2022-12-01T14:54:25;6.50;87.10
10316;DHT22;5203;48.976;8.306;2022-12-01T14:56:54;6.50;86.20
10316;DHT22;5203;48.976;8.306;2022-12-01T14:59:22;6.40;86.00
10316;DHT22;5203;48.976;8.306;2022-12-01T15:01:54;6.40;85.30
10316;DHT22;5203;48.976;8.306;2022-12-01T15:04:20;6.40;85.70
10316;DHT22;5203;48.976;8.306;2022-12-01T15:06:46;6.50;85.20
10316;DHT22;5203;48.976;8.306;2022-12-01T15:09:19;6.40;86.10
10316;DHT22;5203;48.976;8.306;2022-12-01T15:12:04;6.30;85.80
10316;DHT22;5203;48.976;8.306;2022-12-01T15:14:36;6.30;87.10
10316;DHT22;5203;48.976;8.306;2022-12-01T15:17:02;6.30;85.90
10316;DHT22;5203;48.976;8.306;2022-12-01T15:19:39;6.30;85.50
10316;DHT22;5203;48.976;8.306;2022-12-01T15:22:14;6.30;85.20
10316;DHT22;5203;48.976;8.306;2022-12-01T15:24:40;6.20;86.10
10316;DHT22;5203;48.976;8.306;2022-12-01T15:27:29;6.10;87.00
10316;DHT22;5203;48.976;8.306;2022-12-01T15:29:57;6.10;87.80
10316;DHT22;5203;48.976;8.306;2022-12-01T15:32:29;6.10;87.90
10316;DHT22;5203;48.976;8.306;2022-12-01T15:34:56;6.20;87.60
10316;DHT22;5203;48.976;8.306;2022-12-01T15:37:26;6.20;88.80
10316;DHT22;5203;48.976;8.306;2022-12-01T15:39:59;6.20;88.20
10316;DHT22;5203;48.976;8.306;2022-12-01T15:42:33;6.30;88.00
10316;DHT22;5203;48.976;8.306;2022-12-01T15:45:01;6.20;88.20
10316;DHT22;5203;48.976;8.306;2022-12-01T15:47:31;6.20;87.20
10316;DHT22;5203;48.976;8.306;2022-12-01T15:49:57;6.30;88.20
10316;DHT22;5203;48.976;8.306;2022-12-01T15:52:23;6.30;87.40
10316;DHT22;5203;48.976;8.306;2022-12-01T15:54:49;6.30;87.30
10316;DHT22;5203;48.976;8.306;2022-12-01T15:57:17;6.20;87.50
10316;DHT22;5203;48.976;8.306;2022-12-01T15:59:44;6.20;88.10
10316;DHT22;5203;48.976;8.306;2022-12-01T16:02:24;6.20;88.00
10316;DHT22;5203;48.976;8.306;2022-12-01T16:05:04;6.20;87.80
10316;DHT22;5203;48.976;8.306;2022-12-01T16:07:38;6.20;88.60
10316;DHT22;5203;48.976;8.306;2022-12-01T16:10:05;6.20;89.80
10316;DHT22;5203;48.976;8.306;2022-12-01T16:12:33;6.20;88.00
10316;DHT22;5203;48.976;8.306;2022-12-01T16:17:44;6.30;89.10
10316;DHT22;5203;48.976;8.306;2022-12-01T16:22:58;6.20;89.40
10316;DHT22;5203;48.976;8.306;2022-12-01T16:25:34;6.20;88.50
10316;DHT22;5203;48.976;8.306;2022-12-01T16:28:02;6.30;89.30
10316;DHT22;5203;48.976;8.306;2022-12-01T16:30:34;6.30;88.60
10316;DHT22;5203;48.976;8.306;2022-12-01T16:33:44;6.30;88.20
10316;DHT22;5203;48.976;8.306;2022-12-01T16:35:51;6.30;88.20
10316;DHT22;5203;48.976;8.306;2022-12-01T16:38:19;6.30;88.90
10316;DHT22;5203;48.976;8.306;2022-12-01T16:40:58;6.30;88.70
10316;DHT22;5203;48.976;8.306;2022-12-01T16:43:26;6.20;88.80
10316;DHT22;5203;48.976;8.306;2022-12-01T16:46:00;6.30;88.90
10316;DHT22;5203;48.976;8.306;2022-12-01T16:48:28;6.30;87.90
10316;DHT22;5203;48.976;8.306;2022-12-01T16:50:54;6.20;89.70
10316;DHT22;5203;48.976;8.306;2022-12-01T16:53:20;6.20;89.60
10316;DHT22;5203;48.976;8.306;2022-12-01T16:55:50;6.30;91.40
10316;DHT22;5203;48.976;8.306;2022-12-01T16:58:17;6.30;90.70
10316;DHT22;5203;48.976;8.306;2022-12-01T17:00:42;6.30;88.90
10316;DHT22;5203;48.976;8.306;2022-12-01T17:03:14;6.40;89.00
10316;DHT22;5203;48.976;8.306;2022-12-01T17:05:40;6.40;88.50
10316;DHT22;5203;48.976;8.306;2022-12-01T17:08:07;6.30;87.80
10316;DHT22;5203;48.976;8.306;2022-12-01T17:10:32;6.30;88.50
10316;DHT22;5203;48.976;8.306;2022-12-01T17:12:58;6.20;89.30
10316;DHT22;5203;48.976;8.306;2022-12-01T17:15:24;6.20;89.30
10316;DHT22;5203;48.976;8.306;2022-12-01T17:17:50;6.20;90.30
10316;DHT22;5203;48.976;8.306;2022-12-01T17:20:16;6.30;91.40
10316;DHT22;5203;48.976;8.306;2022-12-01T17:22:42;6.30;91.20
10316;DHT22;5203;48.976;8.306;2022-12-01T17:25:08;6.30;90.10
10316;DHT22;5203;48.976;8.306;2022-12-01T17:27:35;6.40;89.40
10316;DHT22;5203;48.976;8.306;2022-12-01T17:30:01;6.40;89.80
10316;DHT22;5203;48.976;8.306;2022-12-01T17:32:27;6.40;90.30
10316;DHT22;5203;48.976;8.306;2022-12-01T17:34:53;6.40;90.20
10316;DHT22;5203;48.976;8.306;2022-12-01T17:37:19;6.40;90.30
10316;DHT22;5203;48.976;8.306;2022-12-01T17:39:45;6.50;90.40
10316;DHT22;5203;48.976;8.306;2022-12-01T17:42:10;6.50;91.30
10316;DHT22;5203;48.976;8.306;2022-12-01T17:44:36;6.50;91.50
10316;DHT22;5203;48.976;8.306;2022-12-01T17:47:03;6.60;89.50
10316;DHT22;5203;48.976;8.306;2022-12-01T17:49:28;6.50;88.80
10316;DHT22;5203;48.976;8.306;2022-12-01T17:51:54;6.60;88.80
10316;DHT22;5203;48.976;8.306;2022-12-01T17:54:20;6.50;88.90
10316;DHT22;5203;48.976;8.306;2022-12-01T17:56:46;6.50;90.40
10316;DHT22;5203;48.976;8.306;2022-12-01T17:59:12;6.50;89.10
10316;DHT22;5203;48.976;8.306;2022-12-01T18:01:38;6.50;90.20
10316;DHT22;5203;48.976;8.306;2022-12-01T18:04:06;6.50;91.00
10316;DHT22;5203;48.976;8.306;2022-12-01T18:06:31;6.50;91.80
10316;DHT22;5203;48.976;8.306;2022-12-01T18:08:59;6.50;90.60
10316;DHT22;5203;48.976;8.306;2022-12-01T18:11:25;6.50;90.20
10316;DHT22;5203;48.976;8.306;2022-12-01T18:13:51;6.40;90.60
10316;DHT22;5203;48.976;8.306;2022-12-01T18:16:26;6.30;91.70
10316;DHT22;5203;48.976;8.306;2022-12-01T18:18:53;6.30;92.10
10316;DHT22;5203;48.976;8.306;2022-12-01T18:21:21;6.20;92.00
10316;DHT22;5203;48.976;8.306;2022-12-01T18:23:59;6.20;92.50
10316;DHT22;5203;48.976;8.306;2022-12-01T18:26:26;6.20;92.90
10316;DHT22;5203;48.976;8.306;2022-12-01T18:29:01;6.10;93.60
10316;DHT22;5203;48.976;8.306;2022-12-01T18:31:28;6.10;93.70
10316;DHT22;5203;48.976;8.306;2022-12-01T18:33:57;6.10;93.40
10316;DHT22;5203;48.976;8.306;2022-12-01T18:36:24;6.10;94.00
10316;DHT22;5203;48.976;8.306;2022-12-01T18:38:51;6.10;94.30
10316;DHT22;5203;48.976;8.306;2022-12-01T18:41:18;6.10;95.20
10316;DHT22;5203;48.976;8.306;2022-12-01T18:43:45;6.10;95.00
10316;DHT22;5203;48.976;8.306;2022-12-01T18:46:12;6.10;95.80
10316;DHT22;5203;48.976;8.306;2022-12-01T18:48:43;6.10;95.40
10316;DHT22;5203;48.976;8.306;2022-12-01T18:51:10;6.10;96.10